Time;durP1;ratioP1;P1;durP2;ratioP2;P2;SDS_P1;SDS_P2;PMS_P1;PMS_P2;Temp;Humidity;BMP_temperature;BMP_pressure;BME280_temperature;BME280_humidity;BME280_pressure;Samples;Min_cycle;Max_cycle;Signal;HPM_P1;HPM_P2
2022/08/23 00:00:45;;;;;;;;;;;17.80;99.90;;;;;;5159460;27;19922;-68
2022/08/23 00:03:11;;;;;;;;;;;17.80;99.90;;;;;;5159403;27;19923;-70
2022/08/23 00:05:37;;;;;;;;;;;17.80;99.90;;;;;;5177618;27;19969;-67
2022/08/23 00:08:02;;;;;;;;;;;17.80;99.90;;;;;;5177539;27;19923;-67
2022/08/23 00:10:28;;;;;;;;;;;17.70;99.90;;;;;;5158835;27;19923;-67
2022/08/23 00:12:54;;;;;;;;;;;17.60;99.90;;;;;;5159067;27;20025;-67
2022/08/23 00:15:20;;;;;;;;;;;17.50;99.90;;;;;;5159193;27;19926;-67
2022/08/23 00:17:46;;;;;;;;;;;17.50;99.90;;;;;;5177458;27;19966;-67
2022/08/23 00:20:13;;;;;;;;;;;17.40;99.90;;;;;;5158851;27;20021;-68
2022/08/23 00:22:39;;;;;;;;;;;17.30;99.90;;;;;;5177503;27;19930;-68
2022/08/23 00:25:06;;;;;;;;;;;17.20;99.90;;;;;;5158740;27;20301;-68
2022/08/23 00:27:32;;;;;;;;;;;17.20;99.90;;;;;;5177153;27;19974;-67
2022/08/23 00:29:57;;;;;;;;;;;17.30;99.90;;;;;;5177125;27;19931;-67
2022/08/23 00:32:25;;;;;;;;;;;17.30;99.90;;;;;;5158887;27;19923;-70
2022/08/23 00:34:50;;;;;;;;;;;17.30;99.90;;;;;;5176887;27;19930;-69
2022/08/23 00:37:16;;;;;;;;;;;17.40;99.90;;;;;;5177470;27;19930;-67
2022/08/23 00:39:43;;;;;;;;;;;17.50;99.90;;;;;;5177203;27;20341;-68
2022/08/23 00:47:44;;;;;;;;;;;17.50;99.90;;;;;;5176982;27;19982;-71
2022/08/23 00:50:22;;;;;;;;;;;17.60;99.90;;;;;;5141019;27;19926;-69
2022/08/23 00:52:56;;;;;;;;;;;17.60;99.90;;;;;;5176807;27;19923;-70
2022/08/23 00:55:23;;;;;;;;;;;17.70;99.90;;;;;;5176810;27;19929;-69
2022/08/23 00:57:49;;;;;;;;;;;17.70;99.90;;;;;;5158298;27;19962;-69
2022/08/23 01:00:16;;;;;;;;;;;17.70;99.90;;;;;;5176870;27;19930;-68
2022/08/23 01:02:42;;;;;;;;;;;17.80;99.90;;;;;;5158489;27;20011;-67
2022/08/23 01:05:08;;;;;;;;;;;17.80;99.90;;;;;;5158361;27;19922;-69
2022/08/23 01:07:37;;;;;;;;;;;17.80;99.90;;;;;;5176555;27;19967;-67
2022/08/23 01:10:08;;;;;;;;;;;17.80;99.90;;;;;;5176508;27;20352;-67
2022/08/23 01:12:35;;;;;;;;;;;17.80;99.90;;;;;;5176389;27;20026;-71
2022/08/23 01:15:14;;;;;;;;;;;17.80;99.90;;;;;;5176551;27;20385;-68
2022/08/23 01:17:45;;;;;;;;;;;17.80;99.90;;;;;;5176583;27;19934;-67
2022/08/23 01:20:18;;;;;;;;;;;17.10;99.90;;;;;;5176220;27;20270;-68
2022/08/23 01:22:49;;;;;;;;;;;17.70;99.90;;;;;;5176292;27;19923;-68
2022/08/23 01:25:17;;;;;;;;;;;17.70;99.90;;;;;;5176270;27;19923;-67
2022/08/23 01:27:44;;;;;;;;;;;17.70;99.90;;;;;;5176503;27;19923;-67
2022/08/23 01:30:11;;;;;;;;;;;17.70;99.90;;;;;;5176215;27;19927;-67
2022/08/23 01:32:42;;;;;;;;;;;17.80;99.90;;;;;;5176465;27;19930;-67
2022/08/23 01:35:07;;;;;;;;;;;17.60;99.90;;;;;;5176197;27;19982;-67
2022/08/23 01:37:33;;;;;;;;;;;17.60;99.90;;;;;;5157749;27;19927;-67
2022/08/23 01:39:59;;;;;;;;;;;17.60;99.90;;;;;;5157743;27;19968;-71
2022/08/23 01:42:24;;;;;;;;;;;17.60;99.90;;;;;;5176267;27;19930;-68
2022/08/23 01:44:50;;;;;;;;;;;17.60;99.90;;;;;;5157578;27;19934;-67
2022/08/23 01:47:16;;;;;;;;;;;17.60;99.90;;;;;;5176399;27;19923;-68
2022/08/23 01:49:41;;;;;;;;;;;16.80;99.90;;;;;;5176034;27;19930;-66
2022/08/23 01:52:07;;;;;;;;;;;17.60;99.90;;;;;;5177131;27;20361;-70
2022/08/23 01:54:33;;;;;;;;;;;17.60;99.90;;;;;;5161839;27;19930;-68
2022/08/23 01:56:58;;;;;;;;;;;17.60;99.90;;;;;;5180447;27;19923;-72
2022/08/23 01:59:24;;;;;;;;;;;17.60;99.90;;;;;;5161659;27;19923;-67
2022/08/23 02:01:50;;;;;;;;;;;17.60;99.90;;;;;;5180350;27;20427;-68
2022/08/23 02:04:15;;;;;;;;;;;17.60;99.90;;;;;;5180151;27;20018;-66
2022/08/23 02:06:41;;;;;;;;;;;17.60;99.90;;;;;;5180007;27;19982;-68
2022/08/23 02:09:06;;;;;;;;;;;17.60;99.90;;;;;;5179895;27;19945;-67
2022/08/23 02:11:39;;;;;;;;;;;17.60;99.90;;;;;;5161133;27;19962;-68
2022/08/23 02:14:07;;;;;;;;;;;17.60;99.90;;;;;;5144320;27;19923;-68
2022/08/23 02:16:35;;;;;;;;;;;17.50;99.90;;;;;;5179965;27;19923;-68
2022/08/23 02:19:01;;;;;;;;;;;17.50;99.90;;;;;;5179827;27;19926;-67
2022/08/23 02:21:30;;;;;;;;;;;16.90;99.90;;;;;;5161111;27;19930;-69
2022/08/23 02:23:59;;;;;;;;;;;17.50;99.90;;;;;;5179914;27;19978;-68
2022/08/23 02:26:24;;;;;;;;;;;17.50;99.90;;;;;;5144001;27;20316;-68
2022/08/23 02:28:51;;;;;;;;;;;17.40;99.90;;;;;;5179677;27;19934;-68
2022/08/23 02:31:17;;;;;;;;;;;17.50;99.90;;;;;;5143855;27;20373;-68
2022/08/23 02:33:42;;;;;;;;;;;17.40;99.90;;;;;;5143832;27;20025;-68
2022/08/23 02:36:08;;;;;;;;;;;17.40;99.90;;;;;;5179391;27;19923;-67
2022/08/23 02:38:33;;;;;;;;;;;17.40;99.90;;;;;;5179409;27;19945;-70
2022/08/23 02:41:00;;;;;;;;;;;17.40;99.90;;;;;;5179654;27;20347;-68
2022/08/23 02:43:25;;;;;;;;;;;17.40;99.90;;;;;;5161114;27;19926;-68
2022/08/23 02:45:51;;;;;;;;;;;17.30;99.90;;;;;;5179438;27;20270;-67
2022/08/23 02:48:16;;;;;;;;;;;17.20;99.90;;;;;;5160998;27;19981;-68
2022/08/23 02:50:42;;;;;;;;;;;17.10;99.90;;;;;;5179457;27;19930;-68
2022/08/23 02:53:07;;;;;;;;;;;17.10;99.90;;;;;;5179215;27;19975;-67
2022/08/23 02:55:34;;;;;;;;;;;17.00;99.90;;;;;;5178960;27;19949;-67
2022/08/23 02:58:00;;;;;;;;;;;16.90;99.90;;;;;;5179185;27;19934;-68
2022/08/23 03:00:25;;;;;;;;;;;16.80;99.90;;;;;;5142655;27;19922;-67
2022/08/23 03:02:51;;;;;;;;;;;16.80;99.90;;;;;;5178997;27;19923;-70
2022/08/23 03:05:16;;;;;;;;;;;16.80;99.90;;;;;;5178199;27;19922;-67
2022/08/23 03:07:42;;;;;;;;;;;16.80;99.90;;;;;;5178784;27;19922;-67
2022/08/23 03:10:09;;;;;;;;;;;16.80;99.90;;;;;;5178738;27;20400;-69
2022/08/23 03:12:34;;;;;;;;;;;16.80;99.90;;;;;;5178936;27;19929;-70
2022/08/23 03:15:00;;;;;;;;;;;16.80;99.90;;;;;;5178854;27;19926;-69
2022/08/23 03:17:26;;;;;;;;;;;16.80;99.90;;;;;;5178790;27;19923;-67
2022/08/23 03:19:51;;;;;;;;;;;16.10;99.90;;;;;;5178680;27;20288;-68
2022/08/23 03:22:17;;;;;;;;;;;16.60;99.90;;;;;;5178641;27;19923;-68
2022/08/23 03:24:43;;;;;;;;;;;16.50;99.90;;;;;;5178461;27;19923;-67
2022/08/23 03:27:10;;;;;;;;;;;16.50;99.90;;;;;;5159768;27;19929;-66
2022/08/23 03:29:35;;;;;;;;;;;16.50;99.90;;;;;;5178597;27;20269;-70
2022/08/23 03:32:02;;;;;;;;;;;16.60;99.90;;;;;;5178487;27;19967;-67
2022/08/23 03:34:28;;;;;;;;;;;16.60;99.90;;;;;;5178390;27;19923;-68
2022/08/23 03:36:55;;;;;;;;;;;16.60;99.90;;;;;;5178235;27;19923;-71
2022/08/23 03:39:20;;;;;;;;;;;16.60;99.90;;;;;;5178177;27;19927;-67
2022/08/23 03:41:46;;;;;;;;;;;16.70;99.90;;;;;;5178098;27;19929;-68
2022/08/23 03:44:11;;;;;;;;;;;16.60;99.90;;;;;;5178307;27;19923;-67
2022/08/23 03:46:37;;;;;;;;;;;16.70;99.90;;;;;;5159680;27;19923;-67
2022/08/23 03:49:03;;;;;;;;;;;16.50;99.90;;;;;;5159746;27;19923;-70
2022/08/23 03:51:29;;;;;;;;;;;16.70;99.90;;;;;;5159651;27;19971;-69
2022/08/23 03:53:55;;;;;;;;;;;16.70;99.90;;;;;;5178293;27;20306;-67
2022/08/23 03:56:25;;;;;;;;;;;16.70;99.90;;;;;;5177764;27;19926;-68
2022/08/23 03:58:51;;;;;;;;;;;16.70;99.90;;;;;;5177994;27;20365;-69
2022/08/23 04:01:17;;;;;;;;;;;16.70;99.90;;;;;;5177953;27;19922;-70
2022/08/23 04:03:42;;;;;;;;;;;16.70;99.90;;;;;;5177829;27;20026;-69
2022/08/23 04:06:08;;;;;;;;;;;16.70;99.90;;;;;;5177647;27;20258;-68
2022/08/23 04:08:34;;;;;;;;;;;16.70;99.90;;;;;;5177681;27;19923;-67
2022/08/23 04:11:00;;;;;;;;;;;16.70;99.90;;;;;;5177546;27;19933;-68
2022/08/23 04:13:28;;;;;;;;;;;16.70;99.90;;;;;;5177550;27;19922;-67
2022/08/23 04:15:54;;;;;;;;;;;16.70;99.90;;;;;;5176635;27;20017;-69
2022/08/23 04:18:19;;;;;;;;;;;16.70;99.90;;;;;;5159228;27;19962;-69
2022/08/23 04:20:46;;;;;;;;;;;16.60;99.90;;;;;;5158820;27;19923;-67
2022/08/23 04:23:11;;;;;;;;;;;16.70;99.90;;;;;;5159059;27;19923;-68
2022/08/23 04:25:37;;;;;;;;;;;16.60;99.90;;;;;;5177219;27;20334;-67
2022/08/23 04:28:03;;;;;;;;;;;16.70;99.90;;;;;;5177573;27;19992;-67
2022/08/23 04:30:29;;;;;;;;;;;16.70;99.90;;;;;;5158634;27;19935;-68
2022/08/23 04:32:55;;;;;;;;;;;16.60;99.90;;;;;;5158731;27;19962;-67
2022/08/23 04:35:21;;;;;;;;;;;16.70;99.90;;;;;;5158817;27;19930;-67
2022/08/23 04:37:46;;;;;;;;;;;16.60;99.90;;;;;;5177110;27;20277;-67
2022/08/23 04:42:56;;;;;;;;;;;16.60;99.90;;;;;;5177135;27;19987;-67
2022/08/23 04:45:22;;;;;;;;;;;16.60;99.90;;;;;;5177056;27;19922;-68
2022/08/23 04:47:48;;;;;;;;;;;16.60;99.90;;;;;;5177022;27;19965;-70
2022/08/23 04:50:14;;;;;;;;;;;16.60;99.90;;;;;;5176745;27;19962;-67
2022/08/23 04:52:39;;;;;;;;;;;16.60;99.90;;;;;;5176770;27;19923;-67
2022/08/23 04:55:05;;;;;;;;;;;16.60;99.90;;;;;;5176699;27;19974;-66
2022/08/23 04:57:31;;;;;;;;;;;16.70;99.90;;;;;;5176635;27;19927;-67
2022/08/23 04:59:56;;;;;;;;;;;16.60;99.90;;;;;;5176822;27;19968;-68
2022/08/23 05:02:22;;;;;;;;;;;16.60;99.90;;;;;;5158080;27;19922;-70
2022/08/23 05:04:47;;;;;;;;;;;16.20;99.90;;;;;;5176815;27;19922;-70
2022/08/23 05:07:14;;;;;;;;;;;16.60;99.90;;;;;;5158248;27;20017;-68
2022/08/23 05:09:39;;;;;;;;;;;16.60;99.90;;;;;;5176441;27;19923;-67
2022/08/23 05:12:05;;;;;;;;;;;16.60;99.90;;;;;;5175435;27;19966;-67
2022/08/23 05:14:31;;;;;;;;;;;16.60;99.90;;;;;;5176529;27;19929;-69
2022/08/23 05:16:56;;;;;;;;;;;15.70;99.90;;;;;;5176602;27;19988;-67
2022/08/23 05:19:37;;;;;;;;;;;16.70;99.90;;;;;;5176463;27;19929;-67
2022/08/23 05:22:02;;;;;;;;;;;16.70;99.90;;;;;;5140745;27;19946;-67
2022/08/23 05:24:28;;;;;;;;;;;16.70;99.90;;;;;;5157900;27;20366;-67
2022/08/23 05:26:54;;;;;;;;;;;16.70;99.90;;;;;;5175674;27;20258;-67
2022/08/23 05:29:20;;;;;;;;;;;16.70;99.90;;;;;;5176298;27;20387;-68
2022/08/23 05:31:46;;;;;;;;;;;16.70;99.90;;;;;;5157812;27;20002;-67
2022/08/23 05:34:11;;;;;;;;;;;16.70;99.90;;;;;;5140363;27;20055;-69
2022/08/23 05:36:37;;;;;;;;;;;16.70;99.90;;;;;;5176203;27;19923;-70
2022/08/23 05:39:04;;;;;;;;;;;16.80;99.90;;;;;;5176041;27;19923;-68
2022/08/23 05:41:29;;;;;;;;;;;16.80;99.90;;;;;;5175904;27;20013;-67
2022/08/23 05:43:55;;;;;;;;;;;16.80;99.90;;;;;;5176299;27;19965;-67
2022/08/23 05:46:21;;;;;;;;;;;16.90;99.90;;;;;;5176305;27;19927;-68
2022/08/23 05:48:47;;;;;;;;;;;16.90;99.90;;;;;;5157875;27;19971;-67
2022/08/23 05:51:15;;;;;;;;;;;16.90;99.90;;;;;;5175935;27;20318;-70
2022/08/23 05:53:41;;;;;;;;;;;16.90;99.90;;;;;;5176173;27;19974;-68
2022/08/23 05:56:27;;;;;;;;;;;17.00;99.90;;;;;;5175854;27;19923;-66
2022/08/23 05:58:54;;;;;;;;;;;17.00;99.90;;;;;;5175199;27;19922;-68
2022/08/23 06:01:20;;;;;;;;;;;17.00;99.90;;;;;;5176002;27;20025;-67
2022/08/23 06:03:46;;;;;;;;;;;17.10;99.90;;;;;;5175965;27;19979;-68
2022/08/23 06:06:13;;;;;;;;;;;17.10;99.90;;;;;;5175814;27;20018;-67
2022/08/23 06:08:39;;;;;;;;;;;17.20;99.90;;;;;;5175844;27;20481;-67
2022/08/23 06:11:06;;;;;;;;;;;17.20;99.90;;;;;;5157243;27;19952;-67
2022/08/23 06:13:32;;;;;;;;;;;17.20;99.90;;;;;;5176164;27;19930;-67
2022/08/23 06:15:58;;;;;;;;;;;17.30;99.90;;;;;;5175950;27;20026;-67
2022/08/23 06:18:24;;;;;;;;;;;17.30;99.90;;;;;;5175817;27;19962;-67
2022/08/23 06:21:04;;;;;;;;;;;17.30;99.90;;;;;;5175623;27;20384;-67
2022/08/23 06:23:29;;;;;;;;;;;17.40;99.90;;;;;;5175661;27;20361;-71
2022/08/23 06:25:55;;;;;;;;;;;17.50;99.90;;;;;;5157340;27;19923;-67
2022/08/23 06:28:21;;;;;;;;;;;17.50;99.90;;;;;;5175833;27;20042;-68
2022/08/23 06:30:46;;;;;;;;;;;17.50;99.90;;;;;;5175621;27;19930;-67
2022/08/23 06:33:12;;;;;;;;;;;17.60;99.90;;;;;;5175610;27;19973;-67
2022/08/23 06:35:38;;;;;;;;;;;17.60;99.90;;;;;;5175435;27;19923;-67
2022/08/23 06:38:04;;;;;;;;;;;17.70;99.90;;;;;;5175440;27;20308;-71
2022/08/23 06:40:29;;;;;;;;;;;17.70;99.90;;;;;;5160313;27;19923;-68
2022/08/23 06:42:56;;;;;;;;;;;17.80;99.90;;;;;;5161101;27;19974;-67
2022/08/23 06:45:22;;;;;;;;;;;17.90;99.90;;;;;;5179476;27;20389;-66
2022/08/23 06:47:47;;;;;;;;;;;17.90;99.90;;;;;;5179327;27;19981;-67
2022/08/23 06:50:13;;;;;;;;;;;18.00;99.90;;;;;;5179112;27;19923;-67
2022/08/23 06:52:38;;;;;;;;;;;18.00;99.90;;;;;;5179013;27;19922;-67
2022/08/23 06:55:04;;;;;;;;;;;18.10;99.90;;;;;;5179052;27;19922;-69
2022/08/23 06:57:31;;;;;;;;;;;18.10;99.90;;;;;;5179075;27;20414;-71
2022/08/23 06:59:56;;;;;;;;;;;18.20;99.90;;;;;;5179130;27;19982;-67
2022/08/23 07:02:22;;;;;;;;;;;18.30;99.90;;;;;;5179194;27;19926;-67
2022/08/23 07:04:52;;;;;;;;;;;18.30;99.90;;;;;;5178912;27;20292;-67
2022/08/23 07:07:18;;;;;;;;;;;18.40;99.90;;;;;;5178845;27;19935;-67
2022/08/23 07:09:44;;;;;;;;;;;18.50;99.90;;;;;;5178599;27;20349;-70
2022/08/23 07:12:10;;;;;;;;;;;18.50;99.90;;;;;;5178854;27;20123;-67
2022/08/23 07:14:36;;;;;;;;;;;18.60;99.90;;;;;;5178893;27;19922;-68
2022/08/23 07:17:02;;;;;;;;;;;18.60;99.90;;;;;;5160192;27;19923;-68
2022/08/23 07:19:29;;;;;;;;;;;18.70;99.90;;;;;;5178706;27;20274;-69
2022/08/23 07:21:55;;;;;;;;;;;18.80;99.90;;;;;;5178449;27;19923;-71
2022/08/23 07:24:21;;;;;;;;;;;18.80;99.90;;;;;;5178698;27;19930;-70
2022/08/23 07:26:48;;;;;;;;;;;18.90;99.90;;;;;;5178431;27;19923;-72
2022/08/23 07:29:14;;;;;;;;;;;19.00;99.90;;;;;;5178548;27;20329;-68
2022/08/23 07:31:43;;;;;;;;;;;19.10;99.90;;;;;;5159968;27;20340;-71
2022/08/23 07:34:09;;;;;;;;;;;19.10;99.90;;;;;;5160060;27;19929;-68
2022/08/23 07:36:35;;;;;;;;;;;19.20;99.90;;;;;;5178203;27;19922;-70
2022/08/23 07:39:01;;;;;;;;;;;19.20;99.90;;;;;;5178214;27;20410;-68
2022/08/23 07:41:30;;;;;;;;;;;19.30;99.90;;;;;;5178300;27;19929;-71
2022/08/23 07:43:57;;;;;;;;;;;19.40;99.90;;;;;;5159346;27;20025;-68
2022/08/23 07:46:24;;;;;;;;;;;19.40;99.90;;;;;;5178247;27;19922;-68
2022/08/23 07:48:50;;;;;;;;;;;19.50;99.90;;;;;;5178183;27;19952;-69
2022/08/23 07:51:16;;;;;;;;;;;19.50;99.90;;;;;;5177744;27;19938;-68
2022/08/23 07:53:41;;;;;;;;;;;19.60;99.90;;;;;;5178106;27;19923;-70
2022/08/23 07:56:08;;;;;;;;;;;19.70;99.90;;;;;;5159747;27;19923;-68
2022/08/23 07:58:34;;;;;;;;;;;19.80;99.90;;;;;;5177990;27;20400;-70
2022/08/23 08:01:14;;;;;;;;;;;19.80;99.90;;;;;;5177914;27;19927;-70
2022/08/23 08:03:44;;;;;;;;;;;19.90;99.90;;;;;;5177824;27;20322;-68
2022/08/23 08:06:12;;;;;;;;;;;19.90;99.90;;;;;;5177481;27;20021;-70
2022/08/23 08:08:39;;;;;;;;;;;20.00;99.90;;;;;;5159501;27;19923;-68
2022/08/23 08:11:07;;;;;;;;;;;20.10;99.90;;;;;;5177659;27;19922;-68
2022/08/23 08:13:34;;;;;;;;;;;20.10;99.90;;;;;;5177676;27;20386;-68
2022/08/23 08:15:59;;;;;;;;;;;20.10;99.90;;;;;;5176255;27;20300;-68
2022/08/23 08:18:25;;;;;;;;;;;20.20;99.90;;;;;;5157907;27;19923;-69
2022/08/23 08:20:51;;;;;;;;;;;20.30;99.90;;;;;;5177178;27;20391;-68
2022/08/23 08:23:17;;;;;;;;;;;20.30;99.90;;;;;;5177493;27;20326;-68
2022/08/23 08:25:42;;;;;;;;;;;20.30;99.90;;;;;;5158657;27;19923;-68
2022/08/23 08:28:08;;;;;;;;;;;20.40;99.90;;;;;;5177215;27;19930;-68
2022/08/23 08:30:33;;;;;;;;;;;20.50;99.90;;;;;;5177186;27;19930;-68
2022/08/23 08:32:59;;;;;;;;;;;20.60;99.90;;;;;;5177274;27;19966;-68
2022/08/23 08:35:24;;;;;;;;;;;20.70;99.90;;;;;;5176836;27;19923;-67
2022/08/23 08:37:50;;;;;;;;;;;20.70;99.90;;;;;;5176915;27;20282;-70
2022/08/23 08:40:19;;;;;;;;;;;20.80;99.90;;;;;;5177038;27;19966;-69
2022/08/23 08:42:44;;;;;;;;;;;20.90;99.90;;;;;;5177133;27;20014;-68
2022/08/23 08:45:24;;;;;;;;;;;21.00;99.90;;;;;;5158292;27;19989;-69
2022/08/23 08:47:50;;;;;;;;;;;21.00;99.90;;;;;;5176806;27;20006;-69
2022/08/23 08:50:35;;;;;;;;;;;21.10;99.90;;;;;;5158180;27;20362;-68
2022/08/23 08:53:05;;;;;;;;;;;21.20;99.90;;;;;;5158557;27;20381;-67
2022/08/23 08:55:50;;;;;;;;;;;21.20;99.90;;;;;;5158515;27;19974;-68
2022/08/23 08:58:19;;;;;;;;;;;21.30;99.90;;;;;;5176696;27;19970;-70
2022/08/23 09:00:45;;;;;;;;;;;21.40;99.90;;;;;;5176569;27;19946;-70
2022/08/23 09:03:13;;;;;;;;;;;21.50;99.90;;;;;;5176242;27;19927;-71
2022/08/23 09:05:46;;;;;;;;;;;21.50;99.90;;;;;;5176450;27;19929;-71
2022/08/23 09:08:12;;;;;;;;;;;21.60;99.90;;;;;;5158316;27;19969;-72
2022/08/23 09:10:43;;;;;;;;;;;21.70;99.90;;;;;;5176392;27;19982;-70
2022/08/23 09:13:19;;;;;;;;;;;21.80;99.90;;;;;;5176513;27;19923;-73
2022/08/23 09:15:50;;;;;;;;;;;21.80;99.90;;;;;;5176345;27;19923;-71
2022/08/23 09:18:16;;;;;;;;;;;21.90;99.90;;;;;;5176521;27;20022;-69
2022/08/23 09:20:44;;;;;;;;;;;22.00;99.90;;;;;;5176387;27;20400;-69
2022/08/23 09:23:11;;;;;;;;;;;22.10;99.90;;;;;;5176478;27;19923;-70
2022/08/23 09:25:37;;;;;;;;;;;22.10;99.90;;;;;;5157827;27;20297;-72
2022/08/23 09:28:03;;;;;;;;;;;22.20;99.90;;;;;;5176395;27;19930;-71
2022/08/23 09:30:46;;;;;;;;;;;22.20;99.90;;;;;;5175975;27;19923;-70
2022/08/23 09:33:34;;;;;;;;;;;22.30;99.90;;;;;;5157950;27;19967;-69
2022/08/23 09:36:19;;;;;;;;;;;22.40;99.90;;;;;;5175682;27;20341;-70
2022/08/23 09:38:56;;;;;;;;;;;22.50;99.90;;;;;;5176070;27;20399;-74
2022/08/23 09:41:23;;;;;;;;;;;22.50;99.90;;;;;;5176136;27;19927;-70
2022/08/23 09:43:51;;;;;;;;;;;22.70;99.90;;;;;;5176191;27;20018;-70
2022/08/23 09:46:23;;;;;;;;;;;22.70;99.90;;;;;;5175920;27;19929;-72
2022/08/23 09:48:49;;;;;;;;;;;22.80;99.90;;;;;;5176053;27;19974;-68
2022/08/23 09:51:18;;;;;;;;;;;22.90;99.90;;;;;;5175746;27;20385;-68
2022/08/23 09:53:48;;;;;;;;;;;23.00;99.90;;;;;;5176132;27;19929;-69
2022/08/23 09:56:23;;;;;;;;;;;23.10;99.90;;;;;;5157145;27;20401;-72
2022/08/23 09:58:52;;;;;;;;;;;23.20;99.90;;;;;;5175993;27;19923;-69
2022/08/23 10:01:17;;;;;;;;;;;23.20;99.90;;;;;;5175837;27;19929;-68
2022/08/23 10:03:43;;;;;;;;;;;23.30;99.90;;;;;;5175900;27;19923;-69
2022/08/23 10:06:10;;;;;;;;;;;23.30;99.90;;;;;;5157501;27;19927;-68
2022/08/23 10:08:37;;;;;;;;;;;23.40;99.90;;;;;;5157340;27;20009;-68
2022/08/23 10:11:15;;;;;;;;;;;23.40;99.90;;;;;;5157128;27;19923;-71
2022/08/23 10:13:41;;;;;;;;;;;23.50;99.90;;;;;;5176166;27;19933;-69
2022/08/23 10:16:15;;;;;;;;;;;23.50;99.90;;;;;;5144298;27;19923;-70
2022/08/23 10:19:00;;;;;;;;;;;23.70;99.90;;;;;;5179780;27;19978;-68
2022/08/23 10:21:35;;;;;;;;;;;23.70;99.90;;;;;;5179899;27;19963;-68
2022/08/23 10:24:12;;;;;;;;;;;23.80;99.90;;;;;;5161043;27;20261;-69
2022/08/23 10:26:43;;;;;;;;;;;23.90;99.90;;;;;;5160983;27;19930;-68
2022/08/23 10:29:38;;;;;;;;;;;23.90;99.90;;;;;;5160760;27;19974;-70
2022/08/23 10:32:06;;;;;;;;;;;24.00;99.90;;;;;;5179656;27;19923;-68
2022/08/23 10:34:40;;;;;;;;;;;24.10;99.90;;;;;;5161287;27;19979;-69
2022/08/23 10:37:21;;;;;;;;;;;24.10;99.90;;;;;;5179295;27;19930;-71
2022/08/23 10:39:54;;;;;;;;;;;24.20;99.90;;;;;;5179558;27;19945;-69
2022/08/23 10:42:22;;;;;;;;;;;24.20;99.90;;;;;;5179457;27;19944;-69
2022/08/23 10:45:02;;;;;;;;;;;24.30;99.90;;;;;;5179209;27;20369;-69
2022/08/23 10:47:33;;;;;;;;;;;24.40;99.90;;;;;;5179326;27;19923;-69
2022/08/23 10:50:02;;;;;;;;;;;24.40;99.90;;;;;;5178960;27;19922;-69
2022/08/23 10:52:39;;;;;;;;;;;24.40;99.90;;;;;;5179250;27;19930;-72
2022/08/23 10:55:16;;;;;;;;;;;24.50;99.90;;;;;;5179348;27;19922;-69
2022/08/23 10:57:44;;;;;;;;;;;24.60;99.90;;;;;;5179208;27;20295;-69
2022/08/23 11:00:21;;;;;;;;;;;24.60;99.90;;;;;;5160699;27;19923;-69
2022/08/23 11:02:58;;;;;;;;;;;24.70;99.90;;;;;;5178855;27;19930;-70
2022/08/23 11:05:28;;;;;;;;;;;24.70;99.90;;;;;;5178866;27;19975;-70
2022/08/23 11:07:59;;;;;;;;;;;24.80;99.90;;;;;;5178894;27;19922;-70
2022/08/23 11:10:41;;;;;;;;;;;24.90;99.90;;;;;;5178612;27;19923;-69
